createdAt,value
2022-10-25T00:02:21.882Z,68638.75
2022-10-25T00:04:49.334Z,68640.84
2022-10-25T00:07:16.604Z,68634.94
2022-10-25T00:09:43.904Z,68637.59
2022-10-25T00:12:11.159Z,68639.31
2022-10-25T00:14:38.349Z,68624.72
2022-10-25T00:17:05.835Z,68619.81
2022-10-25T00:19:33.116Z,68645.75
2022-10-25T00:22:00.701Z,68623.34
2022-10-25T00:24:28.448Z,68655.78
2022-10-25T00:26:56.357Z,68646.13
2022-10-25T00:31:55.512Z,68660.34
2022-10-25T00:34:22.743Z,68645.19
2022-10-25T00:36:50.021Z,68641.56
2022-10-25T00:39:17.316Z,68622.47
2022-10-25T00:41:44.592Z,68620.19
2022-10-25T00:44:45.722Z,68615.06
2022-10-25T00:47:22.125Z,68595.53
2022-10-25T00:50:27.954Z,68620.75
2022-10-25T00:52:58.812Z,68646.69
2022-10-25T00:55:28.633Z,68647.63
2022-10-25T00:58:28.898Z,68658.09
2022-10-25T01:00:56.906Z,68637.81
2022-10-25T01:03:25.657Z,68643.28
2022-10-25T01:05:53.911Z,68646.69
2022-10-25T01:08:22.009Z,68641.00
2022-10-25T01:10:49.814Z,68626.81
2022-10-25T01:13:17.349Z,68644.59
2022-10-25T01:15:53.998Z,68640.06
2022-10-25T01:18:43.350Z,68649.53
2022-10-25T01:21:17.715Z,68630.22
2022-10-25T01:23:53.308Z,68621.31
2022-10-25T01:26:39.124Z,68618.25
2022-10-25T01:29:22.684Z,68638.56
2022-10-25T01:32:01.175Z,68662.44
2022-10-25T01:34:45.573Z,68656.91
2022-10-25T01:37:31.091Z,68641.56
2022-10-25T01:40:22.033Z,68629.84
2022-10-25T01:43:17.119Z,68628.53
2022-10-25T01:45:58.204Z,68643.09
2022-10-25T01:48:48.786Z,68628.53
2022-10-25T01:51:18.297Z,68615.06
2022-10-25T01:53:48.160Z,68597.47
2022-10-25T01:56:29.389Z,68595.94
2022-10-25T01:59:08.469Z,68603.53
2022-10-25T02:02:04.344Z,68593.88
2022-10-25T02:05:06.792Z,68586.09
2022-10-25T02:07:46.289Z,68583.84
2022-10-25T02:10:25.851Z,68591.78
2022-10-25T02:13:18.285Z,68608.63
2022-10-25T02:16:21.075Z,68603.16
2022-10-25T02:18:53.602Z,68627.38
2022-10-25T02:21:22.687Z,68615.81
2022-10-25T02:23:51.387Z,68612.44
2022-10-25T02:26:20.359Z,68618.28
2022-10-25T02:28:48.895Z,68609.78
2022-10-25T02:31:19.786Z,68620.38
2022-10-25T02:33:48.137Z,68629.66
2022-10-25T02:36:20.706Z,68623.03
2022-10-25T02:39:48.883Z,68634.78
2022-10-25T02:42:16.293Z,68625.69
2022-10-25T02:44:43.705Z,68601.84
2022-10-25T02:47:11.111Z,68595.59
2022-10-25T02:49:38.643Z,68572.81
2022-10-25T02:52:05.895Z,68608.63
2022-10-25T02:54:33.110Z,68596.72
2022-10-25T02:57:00.298Z,68606.75
2022-10-25T02:59:27.620Z,68600.31
2022-10-25T03:01:54.851Z,68580.03
2022-10-25T03:04:22.323Z,68596.72
2022-10-25T03:06:49.480Z,68560.34
2022-10-25T03:09:17.100Z,68605.59
2022-10-25T03:11:44.373Z,68615.25
2022-10-25T03:14:11.573Z,68628.53
2022-10-25T03:16:38.820Z,68598.81
2022-10-25T03:19:06.141Z,68587.63
2022-10-25T03:21:33.318Z,68581.56
2022-10-25T03:24:00.731Z,68579.13
2022-10-25T03:26:27.909Z,68579.13
2022-10-25T03:28:55.156Z,68564.38
2022-10-25T03:31:22.380Z,68573.44
2022-10-25T03:33:51.257Z,68585.34
2022-10-25T03:36:18.465Z,68587.28
2022-10-25T03:38:45.694Z,68572.47
2022-10-25T03:41:12.856Z,68573.63
2022-10-25T03:43:40.052Z,68533.09
2022-10-25T03:46:07.649Z,68569.84
2022-10-25T03:48:34.916Z,68569.84
2022-10-25T03:51:02.230Z,68563.22
2022-10-25T03:53:29.443Z,68567.19
2022-10-25T03:55:56.623Z,68542.75
2022-10-25T03:58:24.016Z,68545.78
2022-10-25T04:00:51.355Z,68532.19
2022-10-25T04:03:18.664Z,68530.28
2022-10-25T04:05:45.853Z,68531.44
2022-10-25T04:08:13.086Z,68524.06
2022-10-25T04:10:40.343Z,68526.88
2022-10-25T04:13:07.620Z,68530.84
2022-10-25T04:15:35.330Z,68524.63
2022-10-25T04:18:02.683Z,68525.19
2022-10-25T04:20:30.001Z,68519.31
2022-10-25T04:22:58.495Z,68514.97
2022-10-25T04:25:27.440Z,68516.47
2022-10-25T04:27:55.080Z,68518.94
2022-10-25T04:30:22.724Z,68515.72
2022-10-25T04:32:50.426Z,68519.13
2022-10-25T04:35:18.018Z,68522.53
2022-10-25T04:37:45.249Z,68529.72
2022-10-25T04:40:12.699Z,68522.91
2022-10-25T04:42:39.963Z,68527.81
2022-10-25T04:45:07.560Z,68525.38
2022-10-25T04:47:37.680Z,68529.72
2022-10-25T04:50:05.925Z,68525.75
2022-10-25T04:52:33.220Z,68524.06
2022-10-25T04:55:00.398Z,68523.84
2022-10-25T04:57:27.697Z,68502.50
2022-10-25T04:59:56.292Z,68522.53
2022-10-25T05:02:24.284Z,68518.94
2022-10-25T05:04:51.585Z,68513.81
2022-10-25T05:07:20.426Z,68496.78
2022-10-25T05:09:47.823Z,68478.06
2022-10-25T05:12:15.873Z,68497.34
2022-10-25T05:14:44.001Z,68514.22
2022-10-25T05:17:11.364Z,68486.56
2022-10-25T05:19:38.614Z,68488.09
2022-10-25T05:22:05.958Z,68473.88
2022-10-25T05:24:33.462Z,68478.25
2022-10-25T05:27:00.657Z,68467.28
2022-10-25T05:29:27.965Z,68456.50
2022-10-25T05:31:57.891Z,68475.22
2022-10-25T05:34:25.195Z,68458.22
2022-10-25T05:36:52.387Z,68459.16
2022-10-25T05:39:19.611Z,68461.03
2022-10-25T05:41:46.912Z,68460.47
2022-10-25T05:44:18.123Z,68467.28
2022-10-25T05:46:45.722Z,68457.06
2022-10-25T05:49:13.069Z,68462.38
2022-10-25T05:51:40.416Z,68462.19
2022-10-25T05:54:11.522Z,68465.38
2022-10-25T05:56:40.100Z,68467.47
2022-10-25T05:59:10.321Z,68465.38
2022-10-25T06:01:39.779Z,68464.25
2022-10-25T06:04:08.153Z,68467.28
2022-10-25T06:06:36.704Z,68474.66
2022-10-25T06:09:05.484Z,68461.78
2022-10-25T06:11:33.087Z,68472.78
2022-10-25T06:14:00.504Z,68488.47
2022-10-25T06:16:27.972Z,68479.38
2022-10-25T06:18:55.352Z,68490.16
2022-10-25T06:21:25.010Z,68505.31
2022-10-25T06:23:52.871Z,68508.72
2022-10-25T06:26:21.418Z,68518.94
2022-10-25T06:28:51.956Z,68526.88
2022-10-25T06:31:20.026Z,68535.97
2022-10-25T06:33:47.771Z,68532.19
2022-10-25T06:36:17.887Z,68557.94
2022-10-25T06:38:46.544Z,68561.50
2022-10-25T06:41:16.922Z,68555.66
2022-10-25T06:43:44.551Z,68553.19
2022-10-25T06:46:40.599Z,68552.63
2022-10-25T06:49:19.838Z,68554.50
2022-10-25T06:51:47.120Z,68558.47
2022-10-25T06:54:14.383Z,68565.69
2022-10-25T06:56:41.634Z,68568.69
2022-10-25T06:59:08.919Z,68552.63
2022-10-25T07:01:36.426Z,68569.06
2022-10-25T07:04:03.856Z,68586.31
2022-10-25T07:06:36.037Z,68595.59
2022-10-25T07:09:05.510Z,68600.69
2022-10-25T07:11:33.581Z,68618.28
2022-10-25T07:14:02.352Z,68619.25
2022-10-25T07:16:29.695Z,68616.41
2022-10-25T07:19:02.762Z,68611.88
2022-10-25T07:21:31.784Z,68609.41
2022-10-25T07:23:59.415Z,68609.22
2022-10-25T07:26:30.851Z,68621.31
2022-10-25T07:29:00.084Z,68607.50
2022-10-25T07:31:36.191Z,68592.56
2022-10-25T07:34:04.942Z,68608.63
2022-10-25T07:36:32.920Z,68605.81
2022-10-25T07:39:00.818Z,68611.66
2022-10-25T07:41:28.001Z,68634.22
2022-10-25T07:43:55.572Z,68627.78
2022-10-25T07:46:23.642Z,68618.88
2022-10-25T07:48:52.498Z,68638.34
2022-10-25T07:51:19.950Z,68651.22
2022-10-25T07:53:47.588Z,68682.69
2022-10-25T07:56:20.482Z,68704.13
2022-10-25T07:58:51.969Z,68701.25
2022-10-25T08:01:22.497Z,68722.47
2022-10-25T08:03:50.830Z,68777.78
2022-10-25T08:06:18.582Z,68817.44
2022-10-25T08:08:45.921Z,68841.72
2022-10-25T08:11:13.178Z,68870.91
2022-10-25T08:13:40.420Z,68831.84
2022-10-25T08:16:08.109Z,68809.47
2022-10-25T08:18:35.591Z,68797.91
2022-10-25T08:21:04.537Z,68784.66
2022-10-25T08:23:33.123Z,68809.31
2022-10-25T08:26:01.437Z,68819.53
2022-10-25T08:28:31.281Z,68808.75
2022-10-25T08:31:01.038Z,68810.06
2022-10-25T08:33:29.292Z,68781.34
2022-10-25T08:36:00.167Z,68789.94
2022-10-25T08:38:27.381Z,68795.25
2022-10-25T08:41:03.144Z,68850.25
2022-10-25T08:43:52.033Z,68906.56
2022-10-25T08:46:26.313Z,68925.94
2022-10-25T08:49:04.421Z,69031.75
2022-10-25T08:51:39.862Z,69206.81
2022-10-25T08:54:26.281Z,69244.88
2022-10-25T08:57:15.159Z,69265.97
2022-10-25T08:59:48.993Z,69177.59
2022-10-25T09:02:33.912Z,69044.25
2022-10-25T09:05:01.788Z,69032.41
2022-10-25T09:07:37.401Z,69051.97
2022-10-25T09:10:29.187Z,69038.28
2022-10-25T09:13:10.609Z,69088.25
2022-10-25T09:16:16.538Z,68978.31
2022-10-25T09:18:51.052Z,68907.31
2022-10-25T09:21:57.139Z,68890.81
2022-10-25T09:24:28.889Z,68979.66
2022-10-25T09:27:00.180Z,69021.03
2022-10-25T09:29:32.674Z,68999.94
2022-10-25T09:32:01.866Z,68939.03
2022-10-25T09:34:33.302Z,68897.06
2022-10-25T09:37:12.425Z,68843.91
2022-10-25T09:40:21.414Z,68898.63
2022-10-25T09:42:54.758Z,68910.47
2022-10-25T09:45:27.221Z,68964.25
2022-10-25T09:48:21.454Z,68963.34
2022-10-25T09:51:14.826Z,68926.13
2022-10-25T09:53:44.135Z,68879.47
2022-10-25T09:56:11.993Z,68849.28
2022-10-25T09:58:40.359Z,68847.41
2022-10-25T10:01:32.397Z,68819.53
2022-10-25T10:04:33.001Z,68803.06
2022-10-25T10:07:20.411Z,68810.06
2022-10-25T10:09:50.124Z,68806.44
2022-10-25T10:12:35.740Z,68811.00
2022-10-25T10:15:29.481Z,68816.13
2022-10-25T10:18:34.361Z,68799.25
2022-10-25T10:21:10.677Z,68792.56
2022-10-25T10:23:44.087Z,68782.75
2022-10-25T10:26:19.849Z,68765.97
2022-10-25T10:28:50.041Z,68780.28
2022-10-25T10:31:19.415Z,68774.75
2022-10-25T10:33:51.572Z,68767.38
2022-10-25T10:36:30.300Z,68775.50
2022-10-25T10:39:21.569Z,68783.13
2022-10-25T10:42:15.150Z,68763.41
2022-10-25T10:45:02.044Z,68763.03
2022-10-25T10:47:37.275Z,68760.56
2022-10-25T10:50:25.752Z,68763.22
2022-10-25T10:52:58.372Z,68758.84
2022-10-25T10:55:35.328Z,68765.09
2022-10-25T10:58:13.669Z,68762.47
2022-10-25T11:01:08.725Z,68748.44
2022-10-25T11:03:48.971Z,68741.44
2022-10-25T11:06:32.521Z,68736.69
2022-10-25T11:09:19.836Z,68735.38
2022-10-25T11:12:14.936Z,68749.22
2022-10-25T11:14:42.630Z,68749.75
2022-10-25T11:17:31.317Z,68745.50
2022-10-25T11:20:17.206Z,68855.38
2022-10-25T11:23:06.150Z,68895.94
2022-10-25T11:25:52.232Z,68876.41
2022-10-25T11:28:57.223Z,68882.47
2022-10-25T11:31:46.184Z,68914.44
2022-10-25T11:34:32.972Z,68932.09
2022-10-25T11:37:08.864Z,68929.81
2022-10-25T11:40:07.798Z,68907.06
2022-10-25T11:43:06.299Z,68906.19
2022-10-25T11:45:45.005Z,68890.25
2022-10-25T11:48:30.037Z,68874.88
2022-10-25T11:51:04.342Z,68865.06
2022-10-25T11:53:52.910Z,68876.25
2022-10-25T11:57:04.491Z,68907.63
2022-10-25T11:59:44.125Z,68959.88
2022-10-25T12:02:45.510Z,68975.47
2022-10-25T12:06:05.964Z,68929.72
2022-10-25T12:08:58.894Z,68922.69
2022-10-25T12:11:43.590Z,68915.09
2022-10-25T12:14:16.751Z,68917.97
2022-10-25T12:16:44.804Z,68917.56
2022-10-25T12:19:23.178Z,68957.81
2022-10-25T12:21:55.672Z,68984.00
2022-10-25T12:24:36.947Z,68973.38
2022-10-25T12:27:05.314Z,69002.06
2022-10-25T12:29:40.592Z,69021.03
2022-10-25T12:32:18.879Z,69018.63
2022-10-25T12:34:51.378Z,69043.81
2022-10-25T12:37:49.034Z,69030.31
2022-10-25T12:40:20.682Z,69036.00
2022-10-25T12:43:14.169Z,69023.84
2022-10-25T12:46:02.724Z,68930.97
2022-10-25T12:49:03.333Z,68893.66
2022-10-25T12:52:12.428Z,68875.66
2022-10-25T12:54:54.764Z,68870.16
2022-10-25T12:57:51.228Z,68851.38
2022-10-25T13:03:27.217Z,68782.75
2022-10-25T13:06:18.188Z,68796.19
2022-10-25T13:08:45.783Z,68807.59
2022-10-25T13:11:13.349Z,68813.44
2022-10-25T13:13:47.871Z,68812.72
2022-10-25T13:16:25.567Z,68825.06
2022-10-25T13:19:14.646Z,68823.50
2022-10-25T13:21:53.406Z,68805.78
2022-10-25T13:24:39.822Z,68833.75
2022-10-25T13:27:13.045Z,68818.00
2022-10-25T13:30:22.061Z,68809.69
2022-10-25T13:33:27.717Z,68804.19
2022-10-25T13:35:54.948Z,68786.53
2022-10-25T13:38:34.207Z,68779.72
2022-10-25T13:41:24.271Z,68771.94
2022-10-25T13:44:01.769Z,68754.88
2022-10-25T13:46:33.904Z,68721.91
2022-10-25T13:49:05.480Z,68695.00
2022-10-25T13:51:33.034Z,68677.78
2022-10-25T13:54:07.096Z,68672.84
2022-10-25T13:56:47.866Z,68680.81
2022-10-25T13:59:56.750Z,68678.91
2022-10-25T14:02:24.160Z,68684.78
2022-10-25T14:04:51.578Z,68689.91
2022-10-25T14:07:43.972Z,68692.75
2022-10-25T14:12:57.294Z,68706.19
2022-10-25T14:15:58.495Z,68698.59
2022-10-25T14:18:26.959Z,68685.28
2022-10-25T14:20:59.429Z,68711.47
2022-10-25T14:23:34.616Z,68710.53
2022-10-25T14:26:06.690Z,68719.47
2022-10-25T14:28:39.254Z,68704.47
2022-10-25T14:31:12.039Z,68700.69
2022-10-25T14:33:53.533Z,68705.44
2022-10-25T14:36:38.035Z,68680.19
2022-10-25T14:39:18.663Z,68695.78
2022-10-25T14:42:00.848Z,68688.19
2022-10-25T14:44:44.078Z,68669.44
2022-10-25T14:47:32.588Z,68638.34
2022-10-25T14:50:01.578Z,68629.09
2022-10-25T14:52:30.952Z,68624.56
2022-10-25T14:55:01.582Z,68626.81
2022-10-25T14:57:29.351Z,68620.56
2022-10-25T15:00:01.402Z,68633.63
2022-10-25T15:02:39.459Z,68631.91
2022-10-25T15:05:14.369Z,68630.78
2022-10-25T15:07:46.339Z,68622.09
2022-10-25T15:10:41.101Z,68607.50
2022-10-25T15:13:22.680Z,68617.94
2022-10-25T15:15:51.539Z,68610.53
2022-10-25T15:18:38.685Z,68606.75
2022-10-25T15:21:08.387Z,68603.34
2022-10-25T15:23:36.325Z,68608.47
2022-10-25T15:26:22.143Z,68591.03
2022-10-25T15:29:00.727Z,68595.19
2022-10-25T15:31:32.428Z,68589.31
2022-10-25T15:34:02.310Z,68583.84
2022-10-25T15:36:32.322Z,68591.63
2022-10-25T15:39:09.408Z,68602.78
2022-10-25T15:41:40.501Z,68601.44
2022-10-25T15:44:07.731Z,68612.03
2022-10-25T15:46:35.250Z,68611.13
2022-10-25T15:49:08.627Z,68596.72
2022-10-25T15:51:40.563Z,68588.75
2022-10-25T15:54:15.361Z,68569.81
2022-10-25T15:56:43.179Z,68579.50
2022-10-25T15:59:11.328Z,68576.47
2022-10-25T16:01:41.647Z,68564.94
2022-10-25T16:04:19.171Z,68566.03
2022-10-25T16:06:47.198Z,68562.66
2022-10-25T16:09:14.485Z,68568.50
2022-10-25T16:11:47.149Z,68576.09
2022-10-25T16:14:23.696Z,68579.13
2022-10-25T16:16:51.672Z,68569.06
2022-10-25T16:19:20.255Z,68562.06
2022-10-25T16:21:47.876Z,68560.94
2022-10-25T16:24:15.194Z,68567.94
2022-10-25T16:26:47.601Z,68560.56
2022-10-25T16:29:24.316Z,68565.50
2022-10-25T16:31:52.725Z,68571.38
2022-10-25T16:34:20.014Z,68564.94
2022-10-25T16:36:48.380Z,68570.59
2022-10-25T16:39:15.563Z,68576.09
2022-10-25T16:41:44.785Z,68571.91
2022-10-25T16:44:13.349Z,68576.28
2022-10-25T16:46:40.641Z,68575.53
2022-10-25T16:49:10.954Z,68571.00
2022-10-25T16:51:39.496Z,68566.44
2022-10-25T16:54:07.363Z,68561.50
2022-10-25T16:56:34.442Z,68561.13
2022-10-25T16:59:01.480Z,68554.72
2022-10-25T17:01:33.780Z,68550.16
2022-10-25T17:04:03.119Z,68548.44
2022-10-25T17:06:45.669Z,68558.09
2022-10-25T17:09:12.882Z,68560.00
2022-10-25T17:11:40.998Z,68564.16
2022-10-25T17:14:09.881Z,68559.81
2022-10-25T17:16:41.956Z,68555.66
2022-10-25T17:19:13.021Z,68545.44
2022-10-25T17:21:40.417Z,68542.78
2022-10-25T17:24:09.428Z,68539.75
2022-10-25T17:26:37.828Z,68537.88
2022-10-25T17:29:05.144Z,68522.34
2022-10-25T17:31:32.925Z,68521.97
2022-10-25T17:34:01.211Z,68522.34
2022-10-25T17:36:32.459Z,68518.56
2022-10-25T17:39:00.578Z,68518.16
2022-10-25T17:41:28.146Z,68523.47
2022-10-25T17:43:56.867Z,68523.66
2022-10-25T17:46:26.845Z,68520.25
2022-10-25T17:48:56.513Z,68518.94
2022-10-25T17:51:23.804Z,68514.78
2022-10-25T17:53:54.205Z,68505.31
2022-10-25T17:56:23.094Z,68494.69
2022-10-25T17:58:51.653Z,68502.09
2022-10-25T18:01:21.923Z,68504.38
2022-10-25T18:03:51.629Z,68508.72
2022-10-25T18:08:58.926Z,68491.69
2022-10-25T18:11:28.336Z,68485.06
2022-10-25T18:13:58.405Z,68496.22
2022-10-25T18:16:27.963Z,68502.50
2022-10-25T18:18:56.826Z,68486.94
2022-10-25T18:21:24.667Z,68482.59
2022-10-25T18:23:56.296Z,68482.41
2022-10-25T18:26:25.178Z,68491.13
2022-10-25T18:28:52.845Z,68496.59
2022-10-25T18:31:21.110Z,68490.91
2022-10-25T18:33:48.933Z,68481.09
2022-10-25T18:36:19.433Z,68481.47
2022-10-25T18:38:48.493Z,68489.97
2022-10-25T18:41:21.962Z,68480.72
2022-10-25T18:43:49.879Z,68475.22
2022-10-25T18:46:17.185Z,68476.34
2022-10-25T18:48:45.299Z,68470.50
2022-10-25T18:51:14.226Z,68460.47
2022-10-25T18:53:41.486Z,68452.91
2022-10-25T18:56:12.247Z,68436.28
2022-10-25T18:58:39.720Z,68426.63
2022-10-25T19:01:12.213Z,68427.56
2022-10-25T19:03:39.943Z,68423.59
2022-10-25T19:06:07.884Z,68432.88
2022-10-25T19:08:35.588Z,68441.38
2022-10-25T19:11:04.196Z,68442.69
2022-10-25T19:13:31.381Z,68439.47
2022-10-25T19:15:58.903Z,68444.41
2022-10-25T19:18:26.648Z,68437.22
2022-10-25T19:20:53.796Z,68434.00
2022-10-25T19:23:21.262Z,68438.91
2022-10-25T19:25:48.480Z,68406.56
2022-10-25T19:28:15.570Z,68421.34
2022-10-25T19:30:43.016Z,68414.53
2022-10-25T19:33:10.316Z,68409.03
2022-10-25T19:35:37.390Z,68407.72
2022-10-25T19:38:04.423Z,68411.69
2022-10-25T19:40:31.788Z,68402.63
2022-10-25T19:42:58.806Z,68398.66
2022-10-25T19:45:25.825Z,68396.94
2022-10-25T19:47:56.079Z,68393.72
2022-10-25T19:50:23.949Z,68394.69
2022-10-25T19:52:51.822Z,68397.50
2022-10-25T19:55:18.818Z,68399.59
2022-10-25T19:57:45.957Z,68412.06
2022-10-25T20:00:13.713Z,68404.88
2022-10-25T20:02:41.041Z,68394.84
2022-10-25T20:05:08.377Z,68383.91
2022-10-25T20:07:36.478Z,68374.06
2022-10-25T20:10:03.545Z,68367.47
2022-10-25T20:12:30.981Z,68351.38
2022-10-25T20:14:58.599Z,68351.00
2022-10-25T20:17:25.744Z,68341.00
2022-10-25T20:19:52.907Z,68337.22
2022-10-25T20:22:19.941Z,68341.97
2022-10-25T20:24:46.992Z,68338.16
2022-10-25T20:27:14.028Z,68336.09
2022-10-25T20:29:41.302Z,68324.00
2022-10-25T20:32:08.616Z,68323.78
2022-10-25T20:34:37.518Z,68330.63
2022-10-25T20:37:05.089Z,68334.59
2022-10-25T20:39:32.227Z,68338.00
2022-10-25T20:41:59.335Z,68331.00
2022-10-25T20:44:26.450Z,68321.53
2022-10-25T20:46:53.546Z,68320.75
2022-10-25T20:49:20.628Z,68307.75
2022-10-25T20:51:47.799Z,68304.16
2022-10-25T20:54:14.896Z,68311.50
2022-10-25T20:56:42.041Z,68329.28
2022-10-25T20:59:09.106Z,68338.00
2022-10-25T21:01:36.380Z,68326.28
2022-10-25T21:04:03.594Z,68322.47
2022-10-25T21:06:30.639Z,68311.69
2022-10-25T21:08:57.731Z,68305.28
2022-10-25T21:11:24.753Z,68296.97
2022-10-25T21:13:51.869Z,68282.97
2022-10-25T21:16:18.878Z,68282.59
2022-10-25T21:18:45.933Z,68269.22
2022-10-25T21:21:17.900Z,68264.31
2022-10-25T21:23:45.726Z,68255.22
2022-10-25T21:26:12.852Z,68257.13
2022-10-25T21:28:40.968Z,68256.94
2022-10-25T21:31:11.158Z,68243.72
2022-10-25T21:33:38.560Z,68249.34
2022-10-25T21:36:11.638Z,68253.34
2022-10-25T21:38:39.714Z,68253.16
2022-10-25T21:41:11.700Z,68270.53
2022-10-25T21:43:43.845Z,68264.84
2022-10-25T21:46:11.583Z,68270.53
2022-10-25T21:48:38.698Z,68270.53
2022-10-25T21:51:05.772Z,68252.41
2022-10-25T21:53:33.259Z,68285.81
2022-10-25T21:56:04.366Z,68287.88
2022-10-25T21:58:31.476Z,68292.44
2022-10-25T22:00:58.515Z,68291.50
2022-10-25T22:03:27.855Z,68289.22
2022-10-25T22:05:54.933Z,68282.41
2022-10-25T22:08:22.046Z,68275.06
2022-10-25T22:10:56.076Z,68270.31
2022-10-25T22:13:23.150Z,68258.06
2022-10-25T22:15:56.923Z,68245.22
2022-10-25T22:18:23.968Z,68235.41
2022-10-25T22:20:54.984Z,68236.91
2022-10-25T22:23:22.359Z,68237.09
2022-10-25T22:25:49.362Z,68240.50
2022-10-25T22:28:16.405Z,68241.63
2022-10-25T22:30:43.799Z,68241.63
2022-10-25T22:33:11.036Z,68236.16
2022-10-25T22:35:38.124Z,68250.31
2022-10-25T22:38:05.221Z,68248.06
2022-10-25T22:40:32.302Z,68254.84
2022-10-25T22:43:02.537Z,68250.13
2022-10-25T22:45:29.575Z,68260.34
2022-10-25T22:47:56.567Z,68260.13
2022-10-25T22:50:23.631Z,68269.22
2022-10-25T22:52:50.694Z,68269.94
2022-10-25T22:55:17.716Z,68271.66
2022-10-25T22:57:44.851Z,68270.53
2022-10-25T23:00:12.222Z,68268.25
2022-10-25T23:02:39.547Z,68263.91
2022-10-25T23:05:06.820Z,68262.00
2022-10-25T23:07:33.888Z,68261.84
2022-10-25T23:10:00.922Z,68252.59
2022-10-25T23:12:27.931Z,68252.19
2022-10-25T23:14:54.888Z,68246.91
2022-10-25T23:17:23.091Z,68237.28
2022-10-25T23:19:53.057Z,68244.28
2022-10-25T23:22:20.832Z,68240.31
2022-10-25T23:24:48.986Z,68229.75
2022-10-25T23:27:16.858Z,68231.81
2022-10-25T23:29:43.909Z,68219.53
2022-10-25T23:32:11.047Z,68212.19
2022-10-25T23:34:38.863Z,68214.25
2022-10-25T23:37:05.860Z,68204.44
2022-10-25T23:39:33.013Z,68201.41
2022-10-25T23:42:00.109Z,68194.25
2022-10-25T23:44:27.450Z,68194.06
2022-10-25T23:46:54.361Z,68186.13
2022-10-25T23:49:21.262Z,68184.44
2022-10-25T23:51:48.762Z,68191.03
2022-10-25T23:54:15.657Z,68182.53
2022-10-25T23:56:42.551Z,68162.91
2022-10-25T23:59:09.585Z,68157.25
